Terminal Aerodrome Forecast
Issued by NWS Tulsa, OK

Home | Current Version | Previous Version | Text Only | Print | Product List | Glossary On
Versions: 1 2 3 4 5 6 7 8 9 10 11 12 13 14
000
FTUS44 KTSA 311100
TAFFSM
TAF
KFSM 311120Z 3112/0112 VRB03KT P6SM OVC100
     FM312000 12006KT P6SM OVC050
     FM010000 12008KT 5SM -RA BR BKN025
     FM010300 16008KT 4SM RA BR OVC015=

USA.gov is the U.S. government's official web portal to all federal, state and local government web resources and services.